Time,TemperatureF,DewpointF,PressureIn,WindDirection,WindDirectionDegrees,WindSpeedMPH,WindSpeedGustMPH,Humidity,HourlyPrecipIn,Conditions,Clouds,dailyrainin,SoftwareType,DateUTC
2013-04-28 00:01:00,55.7,54.3,30.04,SE,146,4.5,4.5,95,0.20,,,0.00,VWS V14.01,2013-04-28 04:01:00,
2013-04-28 00:06:00,55.7,54.3,30.03,SE,125,4.5,6.0,95,0.16,,,0.00,VWS V14.01,2013-04-28 04:06:00,
2013-04-28 00:11:00,55.7,54.3,30.03,South,189,3.0,3.0,95,0.11,,,0.00,VWS V14.01,2013-04-28 04:11:00,
2013-04-28 00:16:00,55.7,54.3,30.03,SSE,159,6.0,10.5,95,0.09,,,0.01,VWS V14.01,2013-04-28 04:16:00,
2013-04-28 00:21:00,55.7,54.3,30.02,SSW,209,6.0,6.0,95,0.07,,,0.01,VWS V14.01,2013-04-28 04:21:00,
2013-04-28 00:26:00,55.7,54.3,30.02,SSE,147,7.5,7.5,95,0.06,,,0.02,VWS V14.01,2013-04-28 04:26:00,
2013-04-28 00:31:00,55.7,54.3,30.01,ESE,108,4.5,6.0,95,0.06,,,0.02,VWS V14.01,2013-04-28 04:31:00,
2013-04-28 00:36:00,55.7,54.3,30.01,ESE,111,4.5,10.5,95,0.05,,,0.02,VWS V14.01,2013-04-28 04:36:00,
2013-04-28 00:41:00,55.7,54.3,30.00,South,185,3.0,3.0,95,0.06,,,0.03,VWS V14.01,2013-04-28 04:41:00,
2013-04-28 00:46:00,55.7,54.3,30.00,SSW,205,4.5,6.0,95,0.05,,,0.03,VWS V14.01,2013-04-28 04:46:00,
2013-04-28 00:51:00,55.7,54.3,30.00,SW,235,10.5,12.0,95,0.06,,,0.04,VWS V14.01,2013-04-28 04:51:00,
2013-04-28 00:56:00,55.7,54.3,30.00,West,261,3.0,3.0,95,0.05,,,0.04,VWS V14.01,2013-04-28 04:56:00,
2013-04-28 01:01:00,55.8,54.4,30.00,SW,217,4.5,4.5,95,0.04,,,0.04,VWS V14.01,2013-04-28 05:01:00,
2013-04-28 01:06:00,55.8,54.4,30.00,SW,216,7.5,13.5,95,0.05,,,0.05,VWS V14.01,2013-04-28 05:06:00,
2013-04-28 01:11:00,55.9,54.5,30.00,SSW,208,9.0,9.0,95,0.05,,,0.05,VWS V14.01,2013-04-28 05:11:00,
2013-04-28 01:16:00,55.8,54.4,30.00,SE,136,10.5,13.5,95,0.04,,,0.05,VWS V14.01,2013-04-28 05:16:00,
2013-04-28 01:21:00,55.9,54.5,30.00,South,186,12.0,12.0,95,0.04,,,0.05,VWS V14.01,2013-04-28 05:21:00,
2013-04-28 01:26:00,55.9,54.5,30.00,ESE,116,12.0,12.0,95,0.04,,,0.06,VWS V14.01,2013-04-28 05:26:00,
2013-04-28 01:31:00,55.9,54.5,29.99,South,186,13.5,13.5,95,0.04,,,0.06,VWS V14.01,2013-04-28 05:31:00,
2013-04-28 01:36:00,55.9,54.5,29.99,SSW,212,9.0,13.5,95,0.05,,,0.07,VWS V14.01,2013-04-28 05:36:00,
2013-04-28 01:41:00,55.9,54.5,29.99,SSE,150,7.5,7.5,95,0.05,,,0.08,VWS V14.01,2013-04-28 05:41:00,
2013-04-28 01:46:00,55.9,54.5,29.99,South,187,6.0,6.0,95,0.07,,,0.10,VWS V14.01,2013-04-28 05:46:00,
2013-04-28 01:51:00,55.9,54.5,29.99,SSW,208,4.5,7.5,95,0.07,,,0.11,VWS V14.01,2013-04-28 05:51:00,
2013-04-28 01:56:00,55.9,54.5,29.98,SSW,196,9.0,9.0,95,0.10,,,0.14,VWS V14.01,2013-04-28 05:56:00,
2013-04-28 02:01:00,55.9,54.5,29.97,ESE,113,3.0,4.5,95,0.13,,,0.17,VWS V14.01,2013-04-28 06:01:00,
2013-04-28 02:06:00,55.9,54.5,29.96,ENE,71,6.0,10.5,95,0.14,,,0.19,VWS V14.01,2013-04-28 06:06:00,
2013-04-28 02:11:00,55.9,54.5,29.95,SW,217,4.5,16.5,95,0.16,,,0.21,VWS V14.01,2013-04-28 06:11:00,
2013-04-28 02:16:00,55.8,54.4,29.92,East,89,9.0,13.5,95,0.17,,,0.22,VWS V14.01,2013-04-28 06:16:00,
2013-04-28 02:21:00,55.8,54.4,29.88,SE,129,10.5,18.0,95,0.18,,,0.23,VWS V14.01,2013-04-28 06:21:00,
2013-04-28 02:26:00,55.8,54.4,29.86,ESE,106,6.0,9.0,95,0.18,,,0.24,VWS V14.01,2013-04-28 06:26:00,
2013-04-28 02:31:00,55.8,54.4,29.86,SE,124,4.5,24.0,95,0.19,,,0.25,VWS V14.01,2013-04-28 06:31:00,
2013-04-28 02:36:00,56.0,54.6,29.88,West,264,10.5,12.0,95,0.18,,,0.25,VWS V14.01,2013-04-28 06:36:00,
2013-04-28 02:41:00,56.2,54.8,29.92,West,265,9.0,12.0,95,0.17,,,0.25,VWS V14.01,2013-04-28 06:41:00,
2013-04-28 02:45:00,56.3,54.6,29.92,SE,146,7.5,9.0,94,0.15,,,0.25,VWS V14.01,2013-04-28 06:45:00,
2013-04-28 02:50:00,56.3,54.6,29.92,West,260,4.5,10.5,94,0.14,,,0.25,VWS V14.01,2013-04-28 06:50:00,
2013-04-28 02:55:00,56.4,54.7,29.92,South,182,4.5,15.0,94,0.11,,,0.25,VWS V14.01,2013-04-28 06:55:00,
2013-04-28 03:00:00,56.3,54.3,29.91,SW,234,6.0,18.0,93,0.09,,,0.25,VWS V14.01,2013-04-28 07:00:00,
2013-04-28 03:05:00,56.4,54.4,29.91,WNW,288,1.5,18.0,93,0.07,,,0.25,VWS V14.01,2013-04-28 07:05:00,
2013-04-28 03:10:00,56.5,54.2,29.90,ESE,122,4.5,13.5,92,0.05,,,0.25,VWS V14.01,2013-04-28 07:10:00,
2013-04-28 03:15:00,56.6,54.3,29.92,SW,217,10.5,10.5,92,0.03,,,0.25,VWS V14.01,2013-04-28 07:15:00,
2013-04-28 03:20:00,56.9,54.6,29.97,WSW,248,15.0,21.0,92,0.02,,,0.25,VWS V14.01,2013-04-28 07:20:00,
2013-04-28 03:25:00,56.9,54.6,29.95,ESE,122,4.5,9.0,92,0.01,,,0.25,VWS V14.01,2013-04-28 07:25:00,
2013-04-28 03:30:00,56.8,54.5,29.96,NW,313,3.0,16.5,92,0.00,,,0.25,VWS V14.01,2013-04-28 07:30:00,
2013-04-28 03:35:00,56.9,54.3,29.95,SSW,201,3.0,3.0,91,0.00,,,0.25,VWS V14.01,2013-04-28 07:35:00,
2013-04-28 03:40:00,56.9,54.3,29.95,WSW,244,4.5,4.5,91,0.00,,,0.25,VWS V14.01,2013-04-28 07:40:00,
2013-04-28 03:45:00,56.8,54.2,29.94,South,191,7.5,15.0,91,0.00,,,0.25,VWS V14.01,2013-04-28 07:45:00,
2013-04-28 03:50:00,56.8,54.2,29.95,SW,215,1.5,13.5,91,0.00,,,0.25,VWS V14.01,2013-04-28 07:50:00,
2013-04-28 03:55:00,56.7,54.4,29.95,South,191,9.0,12.0,92,0.00,,,0.25,VWS V14.01,2013-04-28 07:55:00,
2013-04-28 04:00:00,56.7,54.4,29.94,SSE,151,9.0,9.0,92,0.00,,,0.25,VWS V14.01,2013-04-28 08:00:00,
2013-04-28 04:05:00,56.7,54.4,29.94,SW,226,7.5,7.5,92,0.00,,,0.25,VWS V14.01,2013-04-28 08:05:00,
2013-04-28 04:10:00,56.5,54.2,29.94,SSE,163,4.5,7.5,92,0.00,,,0.25,VWS V14.01,2013-04-28 08:10:00,
2013-04-28 04:15:00,56.4,54.1,29.93,WSW,255,3.0,4.5,92,0.00,,,0.25,VWS V14.01,2013-04-28 08:15:00,
2013-04-28 04:20:00,56.3,54.0,29.94,SW,226,3.0,7.5,92,0.00,,,0.25,VWS V14.01,2013-04-28 08:20:00,
2013-04-28 04:25:00,56.2,53.9,29.94,South,177,4.5,9.0,92,0.00,,,0.25,VWS V14.01,2013-04-28 08:25:00,
2013-04-28 04:30:00,56.2,53.9,29.94,ESE,121,4.5,4.5,92,0.00,,,0.25,VWS V14.01,2013-04-28 08:30:00,
2013-04-28 04:35:00,56.1,54.1,29.93,SE,136,1.5,6.0,93,0.00,,,0.25,VWS V14.01,2013-04-28 08:35:00,
2013-04-28 04:40:00,56.1,54.1,29.94,SW,224,6.0,9.0,93,0.00,,,0.25,VWS V14.01,2013-04-28 08:40:00,
2013-04-28 04:45:00,56.0,54.0,29.94,SSW,201,6.0,7.5,93,0.00,,,0.25,VWS V14.01,2013-04-28 08:45:00,
2013-04-28 04:50:00,55.9,53.9,29.93,SW,220,3.0,4.5,93,0.00,,,0.25,VWS V14.01,2013-04-28 08:50:00,
2013-04-28 04:55:00,55.9,53.9,29.93,South,182,3.0,3.0,93,0.00,,,0.25,VWS V14.01,2013-04-28 08:55:00,
2013-04-28 05:00:00,55.8,53.8,29.93,SSW,192,3.0,6.0,93,0.00,,,0.25,VWS V14.01,2013-04-28 09:00:00,
2013-04-28 05:05:00,55.8,53.8,29.93,WSW,254,1.5,6.0,93,0.00,,,0.25,VWS V14.01,2013-04-28 09:05:00,
2013-04-28 05:10:00,55.7,53.7,29.93,ESE,116,4.5,4.5,93,0.00,,,0.25,VWS V14.01,2013-04-28 09:10:00,
2013-04-28 05:15:00,55.6,53.9,29.92,SE,134,4.5,4.5,94,0.00,,,0.25,VWS V14.01,2013-04-28 09:15:00,
2013-04-28 05:20:00,55.5,53.8,29.92,SE,139,1.5,4.5,94,0.00,,,0.25,VWS V14.01,2013-04-28 09:20:00,
2013-04-28 05:25:00,55.5,53.8,29.93,SSW,203,1.5,3.0,94,0.00,,,0.25,VWS V14.01,2013-04-28 09:25:00,
2013-04-28 05:30:00,55.3,53.6,29.93,WSW,244,1.5,1.5,94,0.00,,,0.25,VWS V14.01,2013-04-28 09:30:00,
2013-04-28 05:35:00,55.2,53.5,29.93,South,191,3.0,3.0,94,0.00,,,0.25,VWS V14.01,2013-04-28 09:35:00,
2013-04-28 05:40:00,55.1,53.4,29.92,South,189,1.5,1.5,94,0.00,,,0.25,VWS V14.01,2013-04-28 09:40:00,
2013-04-28 05:45:00,55.0,53.3,29.92,SSW,195,3.0,3.0,94,0.00,,,0.25,VWS V14.01,2013-04-28 09:45:00,
2013-04-28 05:50:00,55.0,53.6,29.92,East,96,1.5,3.0,95,0.00,,,0.25,VWS V14.01,2013-04-28 09:50:00,
2013-04-28 05:55:00,55.0,53.6,29.91,SE,145,3.0,3.0,95,0.00,,,0.25,VWS V14.01,2013-04-28 09:55:00,
2013-04-28 06:00:00,54.9,53.5,29.91,SSE,152,3.0,3.0,95,0.00,,,0.25,VWS V14.01,2013-04-28 10:00:00,
2013-04-28 06:05:00,54.8,53.4,29.91,SSW,203,1.5,1.5,95,0.00,,,0.25,VWS V14.01,2013-04-28 10:05:00,
2013-04-28 06:10:00,54.7,53.3,29.91,South,177,1.5,1.5,95,0.00,,,0.25,VWS V14.01,2013-04-28 10:10:00,
2013-04-28 06:15:00,54.6,53.2,29.91,East,96,1.5,3.0,95,0.00,,,0.25,VWS V14.01,2013-04-28 10:15:00,
2013-04-28 06:20:00,54.5,53.1,29.91,SE,129,4.5,4.5,95,0.00,,,0.25,VWS V14.01,2013-04-28 10:20:00,
2013-04-28 06:25:00,54.6,53.2,29.91,ESE,111,1.5,4.5,95,0.00,,,0.25,VWS V14.01,2013-04-28 10:25:00,
2013-04-28 06:30:00,54.6,53.2,29.91,SE,128,1.5,1.5,95,0.00,,,0.25,VWS V14.01,2013-04-28 10:30:00,
2013-04-28 06:35:00,54.5,53.1,29.91,SE,127,1.5,1.5,95,0.00,,,0.25,VWS V14.01,2013-04-28 10:35:00,
2013-04-28 06:40:00,54.4,53.0,29.91,ESE,116,3.0,3.0,95,0.00,,,0.25,VWS V14.01,2013-04-28 10:40:00,
2013-04-28 06:45:00,54.3,52.9,29.92,ESE,116,1.5,1.5,95,0.00,,,0.25,VWS V14.01,2013-04-28 10:45:00,
2013-04-28 06:50:00,54.2,52.8,29.92,ESE,116,1.5,1.5,95,0.00,,,0.25,VWS V14.01,2013-04-28 10:50:00,
2013-04-28 06:55:00,54.1,52.7,29.92,ESE,116,3.0,3.0,95,0.00,,,0.25,VWS V14.01,2013-04-28 10:55:00,
2013-04-28 07:00:00,53.9,52.5,29.91,East,96,4.5,4.5,95,0.00,,,0.25,VWS V14.01,2013-04-28 11:00:00,
2013-04-28 07:05:00,54.0,52.9,29.90,ESE,122,3.0,3.0,96,0.00,,,0.25,VWS V14.01,2013-04-28 11:05:00,
2013-04-28 07:10:00,54.1,53.0,29.90,East,96,3.0,3.0,96,0.00,,,0.25,VWS V14.01,2013-04-28 11:10:00,
2013-04-28 07:15:00,54.2,53.1,29.90,SE,134,1.5,4.5,96,0.00,,,0.25,VWS V14.01,2013-04-28 11:15:00,
2013-04-28 07:20:00,54.2,53.1,29.90,ENE,71,3.0,4.5,96,0.00,,,0.25,VWS V14.01,2013-04-28 11:20:00,
2013-04-28 07:25:00,54.3,53.2,29.90,East,91,1.5,3.0,96,0.00,,,0.25,VWS V14.01,2013-04-28 11:25:00,
2013-04-28 07:30:00,54.3,53.2,29.91,SE,130,3.0,4.5,96,0.00,,,0.25,VWS V14.01,2013-04-28 11:30:00,
2013-04-28 07:35:00,54.3,53.2,29.91,ESE,104,1.5,1.5,96,0.00,,,0.25,VWS V14.01,2013-04-28 11:35:00,
2013-04-28 07:40:00,54.3,53.2,29.91,ESE,108,3.0,3.0,96,0.00,,,0.25,VWS V14.01,2013-04-28 11:40:00,
2013-04-28 07:45:00,54.3,53.2,29.91,SE,127,1.5,4.5,96,0.00,,,0.25,VWS V14.01,2013-04-28 11:45:00,
2013-04-28 07:50:00,54.5,53.4,29.91,ESE,113,3.0,4.5,96,0.00,,,0.25,VWS V14.01,2013-04-28 11:50:00,
2013-04-28 07:54:00,54.7,53.6,29.91,SSE,150,1.5,1.5,96,0.00,,,0.25,VWS V14.01,2013-04-28 11:54:00,
2013-04-28 07:59:00,55.4,54.3,29.91,ESE,116,3.0,4.5,96,0.00,,,0.25,VWS V14.01,2013-04-28 11:59:00,
2013-04-28 08:04:00,55.9,54.8,29.91,SSE,167,3.0,4.5,96,0.00,,,0.25,VWS V14.01,2013-04-28 12:04:00,
2013-04-28 08:09:00,56.0,54.3,29.91,SSE,147,3.0,6.0,94,0.00,,,0.25,VWS V14.01,2013-04-28 12:09:00,
2013-04-28 08:14:00,56.4,54.7,29.92,South,185,3.0,4.5,94,0.00,,,0.25,VWS V14.01,2013-04-28 12:14:00,
2013-04-28 08:19:00,57.1,55.4,29.92,WSW,244,4.5,6.0,94,0.00,,,0.25,VWS V14.01,2013-04-28 12:19:00,
2013-04-28 08:24:00,57.4,55.4,29.93,SW,222,1.5,4.5,93,0.00,,,0.25,VWS V14.01,2013-04-28 12:24:00,
2013-04-28 08:29:00,57.6,55.6,29.90,ESE,104,7.5,10.5,93,0.00,,,0.25,VWS V14.01,2013-04-28 12:29:00,
2013-04-28 08:34:00,57.5,55.2,29.90,SW,228,4.5,12.0,92,0.00,,,0.25,VWS V14.01,2013-04-28 12:34:00,
2013-04-28 08:39:00,57.4,55.1,29.90,SSW,208,7.5,10.5,92,0.01,,,0.26,VWS V14.01,2013-04-28 12:39:00,
2013-04-28 08:44:00,57.2,55.2,29.89,West,260,3.0,6.0,93,0.01,,,0.26,VWS V14.01,2013-04-28 12:44:00,
2013-04-28 08:49:00,57.2,55.2,29.89,SW,214,7.5,12.0,93,0.01,,,0.26,VWS V14.01,2013-04-28 12:49:00,
2013-04-28 08:54:00,57.4,55.4,29.90,WSW,253,3.0,6.0,93,0.01,,,0.26,VWS V14.01,2013-04-28 12:54:00,
2013-04-28 08:59:00,57.7,55.4,29.90,SSE,163,7.5,7.5,92,0.01,,,0.26,VWS V14.01,2013-04-28 12:59:00,
2013-04-28 09:04:00,57.9,55.6,29.90,South,184,4.5,7.5,92,0.01,,,0.26,VWS V14.01,2013-04-28 13:04:00,
2013-04-28 09:09:00,58.3,56.0,29.90,SW,227,7.5,10.5,92,0.01,,,0.26,VWS V14.01,2013-04-28 13:09:00,
2013-04-28 09:14:00,59.0,56.4,29.91,SSW,213,6.0,13.5,91,0.01,,,0.26,VWS V14.01,2013-04-28 13:14:00,
2013-04-28 09:19:00,59.2,56.3,29.91,SW,236,6.0,6.0,90,0.01,,,0.26,VWS V14.01,2013-04-28 13:19:00,
2013-04-28 09:24:00,59.3,56.4,29.90,SW,219,4.5,7.5,90,0.01,,,0.26,VWS V14.01,2013-04-28 13:24:00,
2013-04-28 09:29:00,59.4,56.2,29.90,WSW,248,4.5,10.5,89,0.01,,,0.26,VWS V14.01,2013-04-28 13:29:00,
2013-04-28 09:34:00,59.9,56.7,29.90,WSW,239,13.5,16.5,89,0.01,,,0.26,VWS V14.01,2013-04-28 13:34:00,
2013-04-28 09:39:00,60.1,56.5,29.90,SSW,212,6.0,10.5,88,0.00,,,0.26,VWS V14.01,2013-04-28 13:39:00,
2013-04-28 09:44:00,60.3,56.7,29.90,SSE,168,9.0,13.5,88,0.00,,,0.26,VWS V14.01,2013-04-28 13:44:00,
2013-04-28 09:49:00,60.5,56.9,29.90,SW,216,10.5,10.5,88,0.00,,,0.26,VWS V14.01,2013-04-28 13:49:00,
2013-04-28 09:54:00,60.8,57.2,29.90,SSW,209,9.0,13.5,88,0.00,,,0.26,VWS V14.01,2013-04-28 13:54:00,
2013-04-28 09:59:00,61.3,57.4,29.90,SSE,156,10.5,15.0,87,0.00,,,0.26,VWS V14.01,2013-04-28 13:59:00,
2013-04-28 10:04:00,61.6,57.4,29.90,SW,233,12.0,13.5,86,0.00,,,0.26,VWS V14.01,2013-04-28 14:04:00,
2013-04-28 10:09:00,61.6,57.0,29.90,ESE,119,9.0,18.0,85,0.00,,,0.26,VWS V14.01,2013-04-28 14:09:00,
2013-04-28 10:14:00,62.0,57.5,29.91,SSW,212,7.5,15.0,85,0.00,,,0.26,VWS V14.01,2013-04-28 14:14:00,
2013-04-28 10:19:00,62.5,57.9,29.91,SSW,199,9.0,13.5,85,0.00,,,0.26,VWS V14.01,2013-04-28 14:19:00,
2013-04-28 10:24:00,63.0,57.8,29.90,SE,141,16.5,18.0,83,0.00,,,0.26,VWS V14.01,2013-04-28 14:24:00,
2013-04-28 10:29:00,63.6,58.3,29.90,SSW,208,10.5,13.5,83,0.00,,,0.26,VWS V14.01,2013-04-28 14:29:00,
2013-04-28 10:34:00,64.0,58.1,29.90,NNW,332,10.5,24.0,81,0.00,,,0.26,VWS V14.01,2013-04-28 14:34:00,
2013-04-28 10:39:00,63.9,58.0,29.91,SSW,194,9.0,13.5,81,0.00,,,0.26,VWS V14.01,2013-04-28 14:39:00,
2013-04-28 10:44:00,64.2,58.3,29.91,SSE,157,10.5,22.5,81,0.00,,,0.26,VWS V14.01,2013-04-28 14:44:00,
2013-04-28 10:49:00,64.0,57.7,29.91,SW,223,28.5,28.5,80,0.00,,,0.26,VWS V14.01,2013-04-28 14:49:00,
2013-04-28 10:54:00,64.0,58.1,29.91,WSW,237,19.5,19.5,81,0.00,,,0.26,VWS V14.01,2013-04-28 14:54:00,
2013-04-28 10:59:00,64.2,57.9,29.91,SSW,203,12.0,12.0,80,0.00,,,0.26,VWS V14.01,2013-04-28 14:59:00,
2013-04-28 11:04:00,64.4,58.1,29.90,SSW,196,9.0,10.5,80,0.00,,,0.26,VWS V14.01,2013-04-28 15:04:00,
2013-04-28 11:09:00,64.4,58.1,29.91,South,181,7.5,9.0,80,0.00,,,0.26,VWS V14.01,2013-04-28 15:09:00,
2013-04-28 11:14:00,64.3,58.0,29.91,WSW,241,6.0,7.5,80,0.00,,,0.26,VWS V14.01,2013-04-28 15:14:00,
2013-04-28 11:19:00,64.1,57.8,29.91,West,260,4.5,6.0,80,0.00,,,0.26,VWS V14.01,2013-04-28 15:19:00,
2013-04-28 11:24:00,64.3,58.3,29.91,SSW,213,7.5,13.5,81,0.00,,,0.26,VWS V14.01,2013-04-28 15:24:00,
2013-04-28 11:29:00,64.5,58.2,29.91,SSW,203,13.5,18.0,80,0.00,,,0.26,VWS V14.01,2013-04-28 15:29:00,
2013-04-28 11:34:00,64.6,58.3,29.91,SSW,206,19.5,19.5,80,0.00,,,0.26,VWS V14.01,2013-04-28 15:34:00,
2013-04-28 11:39:00,64.7,58.4,29.90,SSW,206,10.5,16.5,80,0.00,,,0.26,VWS V14.01,2013-04-28 15:39:00,
2013-04-28 11:44:00,64.9,58.2,29.91,SSW,199,16.5,19.5,79,0.00,,,0.26,VWS V14.01,2013-04-28 15:44:00,
2013-04-28 11:49:00,65.1,58.8,29.90,SSW,203,12.0,16.5,80,0.00,,,0.26,VWS V14.01,2013-04-28 15:49:00,
2013-04-28 11:54:00,65.2,58.5,29.91,SSW,195,10.5,18.0,79,0.00,,,0.26,VWS V14.01,2013-04-28 15:54:00,
2013-04-28 11:59:00,65.1,58.8,29.91,WSW,241,6.0,9.0,80,0.00,,,0.26,VWS V14.01,2013-04-28 15:59:00,
2013-04-28 12:04:00,65.1,59.1,29.91,SW,216,10.5,10.5,81,0.00,,,0.26,VWS V14.01,2013-04-28 16:04:00,
2013-04-28 12:09:00,65.0,58.7,29.91,WSW,237,16.5,16.5,80,0.00,,,0.26,VWS V14.01,2013-04-28 16:09:00,
2013-04-28 12:14:00,64.8,58.5,29.91,SW,226,7.5,13.5,80,0.00,,,0.26,VWS V14.01,2013-04-28 16:14:00,
2013-04-28 12:19:00,64.6,58.7,29.91,SW,230,7.5,15.0,81,0.00,,,0.26,VWS V14.01,2013-04-28 16:19:00,
2013-04-28 12:24:00,64.6,59.0,29.91,WSW,241,10.5,10.5,82,0.00,,,0.26,VWS V14.01,2013-04-28 16:24:00,
2013-04-28 12:29:00,64.9,58.9,29.90,South,181,13.5,16.5,81,0.00,,,0.26,VWS V14.01,2013-04-28 16:29:00,
2013-04-28 12:34:00,65.7,59.7,29.90,South,189,12.0,15.0,81,0.00,,,0.26,VWS V14.01,2013-04-28 16:34:00,
2013-04-28 12:39:00,65.7,59.0,29.90,SW,230,7.5,7.5,79,0.00,,,0.26,VWS V14.01,2013-04-28 16:39:00,
2013-04-28 12:44:00,66.2,59.9,29.89,WSW,254,6.0,7.5,80,0.00,,,0.26,VWS V14.01,2013-04-28 16:44:00,
2013-04-28 12:49:00,66.5,59.4,29.89,SW,223,12.0,13.5,78,0.00,,,0.26,VWS V14.01,2013-04-28 16:49:00,
2013-04-28 12:54:00,66.3,59.6,29.89,SSW,208,13.5,15.0,79,0.00,,,0.26,VWS V14.01,2013-04-28 16:54:00,
2013-04-28 12:59:00,66.6,59.5,29.89,WSW,257,12.0,13.5,78,0.00,,,0.26,VWS V14.01,2013-04-28 16:59:00,
2013-04-28 13:04:00,66.7,59.3,29.88,South,186,6.0,13.5,77,0.00,,,0.26,VWS V14.01,2013-04-28 17:04:00,
2013-04-28 13:09:00,67.1,60.0,29.88,WSW,241,13.5,13.5,78,0.00,,,0.26,VWS V14.01,2013-04-28 17:09:00,
2013-04-28 13:14:00,67.9,60.8,29.88,SSW,199,9.0,9.0,78,0.00,,,0.26,VWS V14.01,2013-04-28 17:14:00,
2013-04-28 13:19:00,68.1,60.3,29.88,WSW,250,7.5,10.5,76,0.00,,,0.26,VWS V14.01,2013-04-28 17:19:00,
2013-04-28 13:24:00,68.2,60.7,29.87,SW,223,10.5,15.0,77,0.00,,,0.26,VWS V14.01,2013-04-28 17:24:00,
2013-04-28 13:29:00,68.4,60.2,29.87,SW,231,19.5,19.5,75,0.00,,,0.26,VWS V14.01,2013-04-28 17:29:00,
2013-04-28 13:34:00,68.7,60.5,29.87,SW,230,19.5,19.5,75,0.00,,,0.26,VWS V14.01,2013-04-28 17:34:00,
2013-04-28 13:39:00,68.4,59.8,29.87,SW,236,9.0,10.5,74,0.00,,,0.26,VWS V14.01,2013-04-28 17:39:00,
2013-04-28 13:44:00,67.9,59.3,29.87,West,262,10.5,12.0,74,0.00,,,0.26,VWS V14.01,2013-04-28 17:44:00,
2013-04-28 13:49:00,68.1,59.9,29.87,SW,233,18.0,18.0,75,0.00,,,0.26,VWS V14.01,2013-04-28 17:49:00,
2013-04-28 13:54:00,68.7,60.1,29.86,SW,229,7.5,12.0,74,0.00,,,0.26,VWS V14.01,2013-04-28 17:54:00,
2013-04-28 13:59:00,68.4,59.8,29.86,WSW,241,15.0,15.0,74,0.00,,,0.26,VWS V14.01,2013-04-28 17:59:00,
2013-04-28 14:04:00,68.2,60.0,29.86,WSW,244,6.0,7.5,75,0.00,,,0.26,VWS V14.01,2013-04-28 18:04:00,
2013-04-28 14:09:00,68.1,59.5,29.86,WSW,257,12.0,16.5,74,0.00,,,0.26,VWS V14.01,2013-04-28 18:09:00,
2013-04-28 14:14:00,68.0,59.4,29.86,SW,231,16.5,16.5,74,0.00,,,0.26,VWS V14.01,2013-04-28 18:14:00,
2013-04-28 14:19:00,68.6,60.4,29.86,SW,231,9.0,12.0,75,0.00,,,0.26,VWS V14.01,2013-04-28 18:19:00,
2013-04-28 14:24:00,68.9,60.3,29.86,WSW,248,13.5,15.0,74,0.00,,,0.26,VWS V14.01,2013-04-28 18:24:00,
2013-04-28 14:29:00,68.8,59.8,29.86,SW,236,7.5,12.0,73,0.00,,,0.26,VWS V14.01,2013-04-28 18:29:00,
2013-04-28 14:34:00,68.6,59.6,29.86,SW,232,10.5,10.5,73,0.00,,,0.26,VWS V14.01,2013-04-28 18:34:00,
2013-04-28 14:39:00,68.7,60.1,29.86,SE,144,7.5,10.5,74,0.00,,,0.26,VWS V14.01,2013-04-28 18:39:00,
2013-04-28 14:44:00,68.8,59.4,29.86,SSW,199,12.0,12.0,72,0.00,,,0.26,VWS V14.01,2013-04-28 18:44:00,
2013-04-28 14:49:00,68.1,58.7,29.86,SW,227,19.5,19.5,72,0.00,,,0.26,VWS V14.01,2013-04-28 18:49:00,
2013-04-28 14:54:00,67.6,59.8,29.86,SSW,209,16.5,18.0,76,0.00,,,0.26,VWS V14.01,2013-04-28 18:54:00,
2013-04-28 14:59:00,67.5,60.0,29.86,WSW,245,6.0,6.0,77,0.00,,,0.26,VWS V14.01,2013-04-28 18:59:00,
2013-04-28 15:04:00,68.0,60.9,29.86,SW,230,6.0,13.5,78,0.00,,,0.26,VWS V14.01,2013-04-28 19:04:00,
2013-04-28 15:09:00,68.8,60.6,29.86,SSE,168,12.0,19.5,75,0.00,,,0.26,VWS V14.01,2013-04-28 19:09:00,
2013-04-28 15:14:00,68.9,60.7,29.86,WSW,253,13.5,15.0,75,0.00,,,0.26,VWS V14.01,2013-04-28 19:14:00,
2013-04-28 15:19:00,69.2,60.6,29.85,SW,234,24.0,28.5,74,0.00,,,0.26,VWS V14.01,2013-04-28 19:19:00,
2013-04-28 15:24:00,69.2,61.0,29.85,SSW,205,7.5,13.5,75,0.00,,,0.26,VWS V14.01,2013-04-28 19:24:00,
2013-04-28 15:29:00,69.0,60.8,29.85,WSW,246,13.5,13.5,75,0.00,,,0.26,VWS V14.01,2013-04-28 19:29:00,
2013-04-28 15:33:00,69.0,60.4,29.84,South,179,7.5,21.0,74,0.00,,,0.26,VWS V14.01,2013-04-28 19:33:00,
2013-04-28 15:38:00,69.7,61.0,29.84,SSW,195,22.5,22.5,74,0.00,,,0.26,VWS V14.01,2013-04-28 19:38:00,
2013-04-28 15:43:00,69.4,60.4,29.84,SSW,208,13.5,16.5,73,0.00,,,0.26,VWS V14.01,2013-04-28 19:43:00,
2013-04-28 15:48:00,69.2,61.0,29.84,SSW,198,6.0,15.0,75,0.00,,,0.26,VWS V14.01,2013-04-28 19:48:00,
2013-04-28 15:53:00,69.2,59.8,29.84,WSW,253,19.5,24.0,72,0.00,,,0.26,VWS V14.01,2013-04-28 19:53:00,
2013-04-28 15:58:00,68.7,60.1,29.84,SSW,196,12.0,27.0,74,0.01,,,0.27,VWS V14.01,2013-04-28 19:58:00,
2013-04-28 16:03:00,67.3,61.6,29.84,SW,223,7.5,12.0,82,0.03,,,0.29,VWS V14.01,2013-04-28 20:03:00,
2013-04-28 16:08:00,67.3,61.6,29.83,SSW,206,7.5,9.0,82,0.03,,,0.29,VWS V14.01,2013-04-28 20:08:00,
2013-04-28 16:13:00,67.5,61.5,29.83,WSW,244,3.0,7.5,81,0.03,,,0.29,VWS V14.01,2013-04-28 20:13:00,
2013-04-28 16:18:00,67.6,61.2,29.83,SSW,203,10.5,13.5,80,0.03,,,0.29,VWS V14.01,2013-04-28 20:18:00,
2013-04-28 16:23:00,67.7,60.6,29.83,SW,226,12.0,18.0,78,0.03,,,0.29,VWS V14.01,2013-04-28 20:23:00,
2013-04-28 16:28:00,67.6,60.5,29.83,WSW,251,9.0,12.0,78,0.03,,,0.29,VWS V14.01,2013-04-28 20:28:00,
2013-04-28 16:33:00,67.0,59.6,29.83,West,271,9.0,13.5,77,0.03,,,0.29,VWS V14.01,2013-04-28 20:33:00,
2013-04-28 16:38:00,66.6,59.9,29.83,WSW,258,6.0,12.0,79,0.03,,,0.29,VWS V14.01,2013-04-28 20:38:00,
2013-04-28 16:43:00,66.3,60.0,29.84,SW,231,7.5,12.0,80,0.04,,,0.30,VWS V14.01,2013-04-28 20:43:00,
2013-04-28 16:48:00,65.4,60.5,29.83,SSW,195,7.5,7.5,84,0.12,,,0.38,VWS V14.01,2013-04-28 20:48:00,
2013-04-28 16:53:00,64.6,60.3,29.83,WNW,303,1.5,3.0,86,0.13,,,0.39,VWS V14.01,2013-04-28 20:53:00,
2013-04-28 16:58:00,63.8,60.2,29.83,SW,224,7.5,7.5,88,0.13,,,0.39,VWS V14.01,2013-04-28 20:58:00,
2013-04-28 17:03:00,63.7,59.4,29.83,WNW,288,6.0,10.5,86,0.11,,,0.40,VWS V14.01,2013-04-28 21:03:00,
2013-04-28 17:08:00,63.7,59.4,29.83,West,278,9.0,10.5,86,0.12,,,0.41,VWS V14.01,2013-04-28 21:08:00,
2013-04-28 17:13:00,63.5,58.9,29.84,West,279,9.0,10.5,85,0.12,,,0.41,VWS V14.01,2013-04-28 21:13:00,
2013-04-28 17:18:00,63.4,58.8,29.84,West,269,7.5,16.5,85,0.12,,,0.41,VWS V14.01,2013-04-28 21:18:00,
2013-04-28 17:23:00,63.4,58.8,29.84,NW,321,9.0,15.0,85,0.12,,,0.41,VWS V14.01,2013-04-28 21:23:00,
2013-04-28 17:28:00,63.5,58.9,29.84,NW,315,9.0,10.5,85,0.12,,,0.41,VWS V14.01,2013-04-28 21:28:00,
2013-04-28 17:33:00,63.9,59.0,29.84,WSW,254,10.5,10.5,84,0.12,,,0.41,VWS V14.01,2013-04-28 21:33:00,
2013-04-28 17:38:00,64.5,59.2,29.84,West,269,12.0,18.0,83,0.12,,,0.41,VWS V14.01,2013-04-28 21:38:00,
2013-04-28 17:43:00,64.5,58.5,29.84,West,281,10.5,13.5,81,0.12,,,0.41,VWS V14.01,2013-04-28 21:43:00,
2013-04-28 17:48:00,64.3,58.0,29.85,WNW,284,7.5,18.0,80,0.05,,,0.41,VWS V14.01,2013-04-28 21:48:00,
2013-04-28 17:53:00,64.2,57.2,29.85,West,275,15.0,21.0,78,0.02,,,0.41,VWS V14.01,2013-04-28 21:53:00,
2013-04-28 17:58:00,64.2,57.6,29.85,WNW,295,10.5,18.0,79,0.02,,,0.41,VWS V14.01,2013-04-28 21:58:00,
2013-04-28 18:03:00,64.2,57.6,29.85,WSW,252,10.5,10.5,79,0.01,,,0.41,VWS V14.01,2013-04-28 22:03:00,
2013-04-28 18:08:00,64.3,58.0,29.85,WNW,298,7.5,18.0,80,0.00,,,0.41,VWS V14.01,2013-04-28 22:08:00,
2013-04-28 18:13:00,64.3,56.6,29.86,WSW,251,18.0,22.5,76,0.00,,,0.41,VWS V14.01,2013-04-28 22:13:00,
2013-04-28 18:18:00,64.6,56.9,29.86,West,278,12.0,16.5,76,0.00,,,0.41,VWS V14.01,2013-04-28 22:18:00,
2013-04-28 18:23:00,64.6,56.9,29.85,West,262,16.5,19.5,76,0.00,,,0.41,VWS V14.01,2013-04-28 22:23:00,
2013-04-28 18:28:00,64.4,57.0,29.86,WSW,258,9.0,13.5,77,0.00,,,0.41,VWS V14.01,2013-04-28 22:28:00,
2013-04-28 18:33:00,64.4,57.4,29.86,West,267,15.0,15.0,78,0.00,,,0.41,VWS V14.01,2013-04-28 22:33:00,
2013-04-28 18:38:00,64.2,57.2,29.86,SW,217,10.5,13.5,78,0.00,,,0.41,VWS V14.01,2013-04-28 22:38:00,
2013-04-28 18:43:00,64.0,57.4,29.86,WSW,251,12.0,16.5,79,0.00,,,0.41,VWS V14.01,2013-04-28 22:43:00,
2013-04-28 18:48:00,64.1,56.8,29.86,NW,310,9.0,12.0,77,0.00,,,0.41,VWS V14.01,2013-04-28 22:48:00,
2013-04-28 18:53:00,64.0,56.3,29.86,WNW,285,7.5,15.0,76,0.00,,,0.41,VWS V14.01,2013-04-28 22:53:00,
2013-04-28 18:58:00,63.7,56.7,29.87,WSW,251,13.5,13.5,78,0.00,,,0.41,VWS V14.01,2013-04-28 22:58:00,
2013-04-28 19:03:00,63.5,56.9,29.87,WNW,288,9.0,12.0,79,0.00,,,0.41,VWS V14.01,2013-04-28 23:03:00,
2013-04-28 19:08:00,63.2,56.6,29.87,NNW,329,4.5,9.0,79,0.00,,,0.41,VWS V14.01,2013-04-28 23:08:00,
2013-04-28 19:13:00,63.0,56.4,29.87,West,265,13.5,13.5,79,0.00,,,0.41,VWS V14.01,2013-04-28 23:13:00,
2013-04-28 19:18:00,62.7,55.4,29.86,West,276,4.5,7.5,77,0.00,,,0.41,VWS V14.01,2013-04-28 23:18:00,
2013-04-28 19:23:00,62.6,55.3,29.87,WSW,255,6.0,7.5,77,0.00,,,0.41,VWS V14.01,2013-04-28 23:23:00,
2013-04-28 19:28:00,62.8,55.8,29.87,WSW,253,10.5,15.0,78,0.00,,,0.41,VWS V14.01,2013-04-28 23:28:00,
2013-04-28 19:33:00,62.7,55.4,29.87,WSW,253,13.5,15.0,77,0.00,,,0.41,VWS V14.01,2013-04-28 23:33:00,
2013-04-28 19:38:00,62.4,55.1,29.87,West,274,7.5,10.5,77,0.00,,,0.41,VWS V14.01,2013-04-28 23:38:00,
2013-04-28 19:43:00,62.2,55.3,29.87,West,265,10.5,15.0,78,0.00,,,0.41,VWS V14.01,2013-04-28 23:43:00,
2013-04-28 19:48:00,62.1,55.2,29.87,NW,310,10.5,13.5,78,0.00,,,0.41,VWS V14.01,2013-04-28 23:48:00,
2013-04-28 19:53:00,61.9,55.0,29.88,West,262,12.0,12.0,78,0.00,,,0.41,VWS V14.01,2013-04-28 23:53:00,
2013-04-28 19:58:00,61.7,54.8,29.88,West,278,7.5,18.0,78,0.00,,,0.41,VWS V14.01,2013-04-28 23:58:00,
2013-04-28 20:03:00,61.5,54.9,29.88,West,271,15.0,15.0,79,0.00,,,0.41,VWS V14.01,2013-04-29 00:03:00,
2013-04-28 20:08:00,61.3,54.7,29.88,West,275,6.0,10.5,79,0.00,,,0.41,VWS V14.01,2013-04-29 00:08:00,
2013-04-28 20:13:00,61.1,54.2,29.88,West,260,9.0,10.5,78,0.00,,,0.41,VWS V14.01,2013-04-29 00:13:00,
2013-04-28 20:18:00,61.0,54.5,29.88,West,264,3.0,6.0,79,0.00,,,0.41,VWS V14.01,2013-04-29 00:18:00,
2013-04-28 20:23:00,60.9,54.3,29.88,WSW,248,6.0,7.5,79,0.00,,,0.41,VWS V14.01,2013-04-29 00:23:00,
2013-04-28 20:28:00,60.7,54.5,29.88,WNW,291,4.5,12.0,80,0.00,,,0.41,VWS V14.01,2013-04-29 00:28:00,
2013-04-28 20:33:00,60.6,54.4,29.88,West,262,7.5,7.5,80,0.00,,,0.41,VWS V14.01,2013-04-29 00:33:00,
2013-04-28 20:38:00,60.5,54.3,29.89,WSW,258,9.0,9.0,80,0.00,,,0.41,VWS V14.01,2013-04-29 00:38:00,
2013-04-28 20:43:00,60.4,54.5,29.89,West,274,6.0,6.0,81,0.00,,,0.41,VWS V14.01,2013-04-29 00:43:00,
2013-04-28 20:48:00,60.3,54.5,29.89,West,269,6.0,7.5,81,0.00,,,0.41,VWS V14.01,2013-04-29 00:48:00,
2013-04-28 20:53:00,60.1,54.3,29.89,West,275,6.0,6.0,81,0.00,,,0.41,VWS V14.01,2013-04-29 00:53:00,
2013-04-28 20:58:00,60.0,54.2,29.89,West,269,7.5,7.5,81,0.00,,,0.41,VWS V14.01,2013-04-29 00:58:00,
2013-04-28 21:03:00,59.8,54.3,29.89,WSW,239,6.0,6.0,82,0.00,,,0.41,VWS V14.01,2013-04-29 01:03:00,
2013-04-28 21:08:00,59.5,54.0,29.89,SW,234,6.0,6.0,82,0.00,,,0.41,VWS V14.01,2013-04-29 01:08:00,
2013-04-28 21:13:00,59.2,54.0,29.90,WSW,253,6.0,6.0,83,0.00,,,0.41,VWS V14.01,2013-04-29 01:13:00,
2013-04-28 21:18:00,58.9,53.8,29.90,West,271,4.5,6.0,83,0.00,,,0.41,VWS V14.01,2013-04-29 01:18:00,
2013-04-28 21:23:00,58.5,53.7,29.90,WSW,253,4.5,6.0,84,0.00,,,0.41,VWS V14.01,2013-04-29 01:23:00,
2013-04-28 21:28:00,58.3,53.8,29.90,West,260,9.0,9.0,85,0.00,,,0.41,VWS V14.01,2013-04-29 01:28:00,
2013-04-28 21:33:00,58.6,53.8,29.91,West,274,4.5,4.5,84,0.00,,,0.41,VWS V14.01,2013-04-29 01:33:00,
2013-04-28 21:38:00,58.5,54.0,29.90,West,269,4.5,6.0,85,0.00,,,0.41,VWS V14.01,2013-04-29 01:38:00,
2013-04-28 21:43:00,58.5,54.0,29.91,West,267,4.5,6.0,85,0.00,,,0.41,VWS V14.01,2013-04-29 01:43:00,
2013-04-28 21:48:00,58.5,54.0,29.91,WSW,257,6.0,7.5,85,0.00,,,0.41,VWS V14.01,2013-04-29 01:48:00,
2013-04-28 21:52:00,58.3,53.8,29.91,West,264,1.5,4.5,85,0.00,,,0.41,VWS V14.01,2013-04-29 01:52:00,
2013-04-28 21:57:00,58.0,53.8,29.91,West,274,1.5,3.0,86,0.00,,,0.41,VWS V14.01,2013-04-29 01:57:00,
2013-04-28 22:02:00,57.8,53.7,29.91,WSW,247,3.0,3.0,86,0.00,,,0.41,VWS V14.01,2013-04-29 02:02:00,
2013-04-28 22:07:00,57.6,53.5,29.91,WSW,255,3.0,4.5,86,0.00,,,0.41,VWS V14.01,2013-04-29 02:07:00,
2013-04-28 22:12:00,57.4,53.6,29.91,WSW,248,6.0,10.5,87,0.00,,,0.41,VWS V14.01,2013-04-29 02:12:00,
2013-04-28 22:17:00,57.2,53.4,29.92,WSW,246,4.5,7.5,87,0.00,,,0.41,VWS V14.01,2013-04-29 02:17:00,
2013-04-28 22:22:00,57.2,53.4,29.91,West,267,4.5,9.0,87,0.00,,,0.41,VWS V14.01,2013-04-29 02:22:00,
2013-04-28 22:27:00,57.3,53.5,29.91,West,260,7.5,10.5,87,0.00,,,0.41,VWS V14.01,2013-04-29 02:27:00,
2013-04-28 22:32:00,57.3,53.5,29.91,WSW,258,7.5,9.0,87,0.00,,,0.41,VWS V14.01,2013-04-29 02:32:00,
2013-04-28 22:37:00,57.2,53.4,29.91,West,260,4.5,6.0,87,0.00,,,0.41,VWS V14.01,2013-04-29 02:37:00,
2013-04-28 22:42:00,57.0,53.2,29.92,WSW,250,7.5,7.5,87,0.00,,,0.41,VWS V14.01,2013-04-29 02:42:00,
2013-04-28 22:47:00,56.9,53.1,29.92,WSW,255,6.0,7.5,87,0.00,,,0.41,VWS V14.01,2013-04-29 02:47:00,
2013-04-28 22:52:00,56.7,52.9,29.92,WSW,250,6.0,7.5,87,0.00,,,0.41,VWS V14.01,2013-04-29 02:52:00,
2013-04-28 22:57:00,56.4,52.9,29.92,SW,234,6.0,6.0,88,0.00,,,0.41,VWS V14.01,2013-04-29 02:57:00,
2013-04-28 23:02:00,56.1,52.6,29.92,WSW,253,4.5,6.0,88,0.00,,,0.41,VWS V14.01,2013-04-29 03:02:00,
2013-04-28 23:07:00,56.0,52.8,29.92,West,271,3.0,4.5,89,0.00,,,0.41,VWS V14.01,2013-04-29 03:07:00,
2013-04-28 23:12:00,55.8,52.6,29.92,WSW,254,3.0,4.5,89,0.00,,,0.41,VWS V14.01,2013-04-29 03:12:00,
2013-04-28 23:17:00,55.7,52.5,29.92,WSW,251,3.0,4.5,89,0.00,,,0.41,VWS V14.01,2013-04-29 03:17:00,
2013-04-28 23:22:00,55.5,52.6,29.92,WSW,246,3.0,4.5,90,0.00,,,0.41,VWS V14.01,2013-04-29 03:22:00,
2013-04-28 23:27:00,55.3,52.4,29.92,SW,236,3.0,3.0,90,0.00,,,0.41,VWS V14.01,2013-04-29 03:27:00,
2013-04-28 23:32:00,55.1,52.2,29.92,SW,231,4.5,4.5,90,0.00,,,0.41,VWS V14.01,2013-04-29 03:32:00,
2013-04-28 23:37:00,55.2,52.6,29.92,WSW,240,3.0,4.5,91,0.00,,,0.41,VWS V14.01,2013-04-29 03:37:00,
2013-04-28 23:42:00,55.3,52.4,29.92,WSW,256,1.5,3.0,90,0.00,,,0.41,VWS V14.01,2013-04-29 03:42:00,
2013-04-28 23:47:00,55.2,52.3,29.92,WSW,258,1.5,1.5,90,0.00,,,0.41,VWS V14.01,2013-04-29 03:47:00,
2013-04-28 23:52:00,54.7,51.8,29.92,WSW,258,1.5,1.5,90,0.00,,,0.41,VWS V14.01,2013-04-29 03:52:00,
2013-04-28 23:57:00,54.3,51.7,29.92,WSW,257,1.5,1.5,91,0.00,,,0.41,VWS V14.01,2013-04-29 03:57:00,